sensor_id;sensor_type;location;lat;lon;timestamp;P1;durP1;ratioP1;P2;durP2;ratioP2
44304;SDS011;30019;50.576;8.568;2022-11-20T00:01:59;15.32;;;10.07;;
44304;SDS011;30019;50.576;8.568;2022-11-20T00:04:25;15.03;;;9.97;;
44304;SDS011;30019;50.576;8.568;2022-11-20T00:06:50;18.52;;;10.15;;
44304;SDS011;30019;50.576;8.568;2022-11-20T00:09:16;16.25;;;10.15;;
44304;SDS011;30019;50.576;8.568;2022-11-20T00:11:41;18.75;;;10.45;;
44304;SDS011;30019;50.576;8.568;2022-11-20T00:14:08;16.80;;;9.82;;
44304;SDS011;30019;50.576;8.568;2022-11-20T00:16:35;19.77;;;10.50;;
44304;SDS011;30019;50.576;8.568;2022-11-20T00:19:00;17.15;;;10.38;;
44304;SDS011;30019;50.576;8.568;2022-11-20T00:21:26;17.12;;;10.43;;
44304;SDS011;30019;50.576;8.568;2022-11-20T00:23:54;17.87;;;10.70;;
44304;SDS011;30019;50.576;8.568;2022-11-20T00:26:21;14.65;;;9.82;;
44304;SDS011;30019;50.576;8.568;2022-11-20T00:28:51;15.90;;;10.05;;
44304;SDS011;30019;50.576;8.568;2022-11-20T00:31:19;18.80;;;10.27;;
44304;SDS011;30019;50.576;8.568;2022-11-20T00:33:45;17.30;;;10.38;;
44304;SDS011;30019;50.576;8.568;2022-11-20T00:36:15;16.33;;;10.18;;
44304;SDS011;30019;50.576;8.568;2022-11-20T00:38:52;17.45;;;11.25;;
44304;SDS011;30019;50.576;8.568;2022-11-20T00:41:19;17.10;;;10.20;;
44304;SDS011;30019;50.576;8.568;2022-11-20T00:43:45;17.75;;;10.07;;
44304;SDS011;30019;50.576;8.568;2022-11-20T00:48:41;16.83;;;10.20;;
44304;SDS011;30019;50.576;8.568;2022-11-20T00:51:07;14.35;;;9.45;;
44304;SDS011;30019;50.576;8.568;2022-11-20T00:53:32;14.43;;;9.23;;
44304;SDS011;30019;50.576;8.568;2022-11-20T00:56:03;16.20;;;9.45;;
44304;SDS011;30019;50.576;8.568;2022-11-20T00:58:31;15.30;;;10.15;;
44304;SDS011;30019;50.576;8.568;2022-11-20T01:01:08;16.95;;;9.65;;
44304;SDS011;30019;50.576;8.568;2022-11-20T01:03:36;14.63;;;9.23;;
44304;SDS011;30019;50.576;8.568;2022-11-20T01:06:05;16.15;;;9.98;;
44304;SDS011;30019;50.576;8.568;2022-11-20T01:08:34;17.50;;;10.43;;
44304;SDS011;30019;50.576;8.568;2022-11-20T01:11:07;15.90;;;9.80;;
44304;SDS011;30019;50.576;8.568;2022-11-20T01:13:38;17.02;;;10.93;;
44304;SDS011;30019;50.576;8.568;2022-11-20T01:18:35;15.63;;;10.02;;
44304;SDS011;30019;50.576;8.568;2022-11-20T01:21:06;17.42;;;10.68;;
44304;SDS011;30019;50.576;8.568;2022-11-20T01:23:37;16.83;;;10.13;;
44304;SDS011;30019;50.576;8.568;2022-11-20T01:26:05;17.58;;;10.55;;
44304;SDS011;30019;50.576;8.568;2022-11-20T01:28:32;19.92;;;11.70;;
44304;SDS011;30019;50.576;8.568;2022-11-20T01:30:58;19.58;;;10.73;;
44304;SDS011;30019;50.576;8.568;2022-11-20T01:33:24;19.02;;;10.65;;
44304;SDS011;30019;50.576;8.568;2022-11-20T01:35:50;14.98;;;9.63;;
44304;SDS011;30019;50.576;8.568;2022-11-20T01:38:17;17.58;;;10.25;;
44304;SDS011;30019;50.576;8.568;2022-11-20T01:40:43;18.50;;;11.57;;
44304;SDS011;30019;50.576;8.568;2022-11-20T01:48:50;16.70;;;9.52;;
44304;SDS011;30019;50.576;8.568;2022-11-20T01:51:17;15.95;;;9.80;;
44304;SDS011;30019;50.576;8.568;2022-11-20T01:53:46;10.27;;;7.07;;
44304;SDS011;30019;50.576;8.568;2022-11-20T01:56:13;16.87;;;10.55;;
44304;SDS011;30019;50.576;8.568;2022-11-20T01:58:42;15.25;;;9.75;;
44304;SDS011;30019;50.576;8.568;2022-11-20T02:01:12;16.20;;;9.67;;
44304;SDS011;30019;50.576;8.568;2022-11-20T02:03:39;19.45;;;10.75;;
44304;SDS011;30019;50.576;8.568;2022-11-20T02:06:12;15.82;;;10.20;;
44304;SDS011;30019;50.576;8.568;2022-11-20T02:08:44;19.30;;;10.93;;
44304;SDS011;30019;50.576;8.568;2022-11-20T02:11:09;17.48;;;10.40;;
44304;SDS011;30019;50.576;8.568;2022-11-20T02:13:35;17.25;;;9.90;;
44304;SDS011;30019;50.576;8.568;2022-11-20T02:16:11;17.73;;;11.48;;
44304;SDS011;30019;50.576;8.568;2022-11-20T02:18:45;17.40;;;10.95;;
44304;SDS011;30019;50.576;8.568;2022-11-20T02:26:27;20.00;;;11.18;;
44304;SDS011;30019;50.576;8.568;2022-11-20T02:28:54;17.35;;;10.57;;
44304;SDS011;30019;50.576;8.568;2022-11-20T02:31:20;17.37;;;11.02;;
44304;SDS011;30019;50.576;8.568;2022-11-20T02:33:46;17.25;;;11.05;;
44304;SDS011;30019;50.576;8.568;2022-11-20T02:36:12;17.77;;;10.88;;
44304;SDS011;30019;50.576;8.568;2022-11-20T02:38:40;16.15;;;10.48;;
44304;SDS011;30019;50.576;8.568;2022-11-20T02:41:07;16.95;;;11.05;;
44304;SDS011;30019;50.576;8.568;2022-11-20T02:43:33;19.92;;;11.40;;
44304;SDS011;30019;50.576;8.568;2022-11-20T02:45:58;17.25;;;11.15;;
44304;SDS011;30019;50.576;8.568;2022-11-20T02:48:24;20.10;;;10.32;;
44304;SDS011;30019;50.576;8.568;2022-11-20T02:50:50;16.42;;;10.35;;
44304;SDS011;30019;50.576;8.568;2022-11-20T02:53:15;17.30;;;10.43;;
44304;SDS011;30019;50.576;8.568;2022-11-20T02:55:41;21.75;;;11.18;;
44304;SDS011;30019;50.576;8.568;2022-11-20T02:58:06;18.92;;;11.43;;
44304;SDS011;30019;50.576;8.568;2022-11-20T03:00:32;15.75;;;9.95;;
44304;SDS011;30019;50.576;8.568;2022-11-20T03:02:58;17.50;;;11.12;;
44304;SDS011;30019;50.576;8.568;2022-11-20T03:05:24;16.12;;;10.38;;
44304;SDS011;30019;50.576;8.568;2022-11-20T03:07:49;16.42;;;10.77;;
44304;SDS011;30019;50.576;8.568;2022-11-20T03:10:15;16.00;;;9.63;;
44304;SDS011;30019;50.576;8.568;2022-11-20T03:12:40;17.42;;;10.32;;
44304;SDS011;30019;50.576;8.568;2022-11-20T03:15:06;14.15;;;9.55;;
44304;SDS011;30019;50.576;8.568;2022-11-20T03:17:32;14.75;;;9.20;;
44304;SDS011;30019;50.576;8.568;2022-11-20T03:19:58;16.62;;;9.75;;
44304;SDS011;30019;50.576;8.568;2022-11-20T03:22:23;17.58;;;10.30;;
44304;SDS011;30019;50.576;8.568;2022-11-20T03:24:49;17.58;;;11.02;;
44304;SDS011;30019;50.576;8.568;2022-11-20T03:27:14;15.13;;;10.02;;
44304;SDS011;30019;50.576;8.568;2022-11-20T03:29:40;20.52;;;10.77;;
44304;SDS011;30019;50.576;8.568;2022-11-20T03:32:05;15.93;;;10.38;;
44304;SDS011;30019;50.576;8.568;2022-11-20T03:34:31;17.40;;;10.55;;
44304;SDS011;30019;50.576;8.568;2022-11-20T03:36:56;15.55;;;10.00;;
44304;SDS011;30019;50.576;8.568;2022-11-20T03:39:22;16.73;;;10.10;;
44304;SDS011;30019;50.576;8.568;2022-11-20T03:41:48;15.35;;;10.10;;
44304;SDS011;30019;50.576;8.568;2022-11-20T03:44:13;17.52;;;10.27;;
44304;SDS011;30019;50.576;8.568;2022-11-20T03:46:39;14.23;;;9.73;;
44304;SDS011;30019;50.576;8.568;2022-11-20T03:49:04;17.37;;;10.40;;
44304;SDS011;30019;50.576;8.568;2022-11-20T03:51:31;19.17;;;9.95;;
44304;SDS011;30019;50.576;8.568;2022-11-20T03:53:58;16.00;;;10.48;;
44304;SDS011;30019;50.576;8.568;2022-11-20T03:56:27;16.30;;;9.55;;
44304;SDS011;30019;50.576;8.568;2022-11-20T03:58:54;17.00;;;9.93;;
44304;SDS011;30019;50.576;8.568;2022-11-20T04:01:21;15.00;;;9.30;;
44304;SDS011;30019;50.576;8.568;2022-11-20T04:03:48;16.23;;;9.95;;
44304;SDS011;30019;50.576;8.568;2022-11-20T04:06:20;19.23;;;9.38;;
44304;SDS011;30019;50.576;8.568;2022-11-20T04:08:47;16.33;;;9.88;;
44304;SDS011;30019;50.576;8.568;2022-11-20T04:11:20;16.77;;;10.20;;
44304;SDS011;30019;50.576;8.568;2022-11-20T04:13:51;18.02;;;10.63;;
44304;SDS011;30019;50.576;8.568;2022-11-20T04:16:31;18.67;;;11.05;;
44304;SDS011;30019;50.576;8.568;2022-11-20T04:18:59;18.08;;;10.25;;
44304;SDS011;30019;50.576;8.568;2022-11-20T04:21:27;15.98;;;10.50;;
44304;SDS011;30019;50.576;8.568;2022-11-20T04:23:53;20.42;;;10.75;;
44304;SDS011;30019;50.576;8.568;2022-11-20T04:26:20;22.55;;;11.12;;
44304;SDS011;30019;50.576;8.568;2022-11-20T04:28:46;18.00;;;11.68;;
44304;SDS011;30019;50.576;8.568;2022-11-20T04:31:16;19.27;;;11.68;;
44304;SDS011;30019;50.576;8.568;2022-11-20T04:33:43;20.45;;;11.12;;
44304;SDS011;30019;50.576;8.568;2022-11-20T04:36:16;17.70;;;11.43;;
44304;SDS011;30019;50.576;8.568;2022-11-20T04:38:43;19.00;;;11.13;;
44304;SDS011;30019;50.576;8.568;2022-11-20T04:41:11;21.65;;;11.38;;
44304;SDS011;30019;50.576;8.568;2022-11-20T04:43:45;17.75;;;11.40;;
44304;SDS011;30019;50.576;8.568;2022-11-20T04:46:13;20.03;;;12.67;;
44304;SDS011;30019;50.576;8.568;2022-11-20T04:48:39;21.73;;;11.63;;
44304;SDS011;30019;50.576;8.568;2022-11-20T04:51:04;20.73;;;11.93;;
44304;SDS011;30019;50.576;8.568;2022-11-20T04:53:30;19.62;;;11.80;;
44304;SDS011;30019;50.576;8.568;2022-11-20T04:55:59;21.23;;;12.48;;
44304;SDS011;30019;50.576;8.568;2022-11-20T04:58:26;19.17;;;11.98;;
44304;SDS011;30019;50.576;8.568;2022-11-20T05:00:52;20.08;;;11.88;;
44304;SDS011;30019;50.576;8.568;2022-11-20T05:03:17;21.10;;;12.15;;
44304;SDS011;30019;50.576;8.568;2022-11-20T05:05:43;19.73;;;11.70;;
44304;SDS011;30019;50.576;8.568;2022-11-20T05:08:08;20.95;;;11.93;;
44304;SDS011;30019;50.576;8.568;2022-11-20T05:10:34;19.55;;;11.65;;
44304;SDS011;30019;50.576;8.568;2022-11-20T05:12:59;17.45;;;10.60;;
44304;SDS011;30019;50.576;8.568;2022-11-20T05:15:25;19.50;;;11.82;;
44304;SDS011;30019;50.576;8.568;2022-11-20T05:17:51;20.27;;;11.60;;
44304;SDS011;30019;50.576;8.568;2022-11-20T05:20:17;19.60;;;11.38;;
44304;SDS011;30019;50.576;8.568;2022-11-20T05:22:44;21.10;;;11.95;;
44304;SDS011;30019;50.576;8.568;2022-11-20T05:25:10;18.85;;;11.63;;
44304;SDS011;30019;50.576;8.568;2022-11-20T05:27:36;23.38;;;11.98;;
44304;SDS011;30019;50.576;8.568;2022-11-20T05:30:02;18.70;;;11.32;;
44304;SDS011;30019;50.576;8.568;2022-11-20T05:32:31;17.42;;;11.27;;
44304;SDS011;30019;50.576;8.568;2022-11-20T05:34:57;21.17;;;12.30;;
44304;SDS011;30019;50.576;8.568;2022-11-20T05:37:22;19.67;;;12.77;;
44304;SDS011;30019;50.576;8.568;2022-11-20T05:39:48;19.50;;;12.35;;
44304;SDS011;30019;50.576;8.568;2022-11-20T05:42:14;17.15;;;10.32;;
44304;SDS011;30019;50.576;8.568;2022-11-20T05:44:55;19.90;;;12.80;;
44304;SDS011;30019;50.576;8.568;2022-11-20T05:47:21;20.50;;;12.95;;
44304;SDS011;30019;50.576;8.568;2022-11-20T05:49:46;19.58;;;12.13;;
44304;SDS011;30019;50.576;8.568;2022-11-20T05:52:12;21.73;;;12.90;;
44304;SDS011;30019;50.576;8.568;2022-11-20T05:54:37;21.62;;;11.68;;
44304;SDS011;30019;50.576;8.568;2022-11-20T05:57:03;23.12;;;13.07;;
44304;SDS011;30019;50.576;8.568;2022-11-20T05:59:28;19.35;;;12.10;;
44304;SDS011;30019;50.576;8.568;2022-11-20T06:01:54;20.23;;;13.27;;
44304;SDS011;30019;50.576;8.568;2022-11-20T06:04:20;22.70;;;13.10;;
44304;SDS011;30019;50.576;8.568;2022-11-20T06:06:45;20.60;;;12.52;;
44304;SDS011;30019;50.576;8.568;2022-11-20T06:09:11;20.33;;;12.15;;
44304;SDS011;30019;50.576;8.568;2022-11-20T06:11:36;20.52;;;13.10;;
44304;SDS011;30019;50.576;8.568;2022-11-20T06:14:02;20.77;;;11.85;;
44304;SDS011;30019;50.576;8.568;2022-11-20T06:16:27;24.35;;;13.57;;
44304;SDS011;30019;50.576;8.568;2022-11-20T06:18:53;24.30;;;13.90;;
44304;SDS011;30019;50.576;8.568;2022-11-20T06:21:19;23.67;;;13.40;;
44304;SDS011;30019;50.576;8.568;2022-11-20T06:23:46;21.80;;;13.35;;
44304;SDS011;30019;50.576;8.568;2022-11-20T06:26:14;22.35;;;12.95;;
44304;SDS011;30019;50.576;8.568;2022-11-20T06:28:44;24.08;;;14.02;;
44304;SDS011;30019;50.576;8.568;2022-11-20T06:31:11;24.08;;;13.88;;
44304;SDS011;30019;50.576;8.568;2022-11-20T06:33:40;23.40;;;13.77;;
44304;SDS011;30019;50.576;8.568;2022-11-20T06:36:06;21.42;;;12.43;;
44304;SDS011;30019;50.576;8.568;2022-11-20T06:38:32;22.65;;;12.82;;
44304;SDS011;30019;50.576;8.568;2022-11-20T06:40:58;20.75;;;13.23;;
44304;SDS011;30019;50.576;8.568;2022-11-20T06:43:23;24.00;;;12.98;;
44304;SDS011;30019;50.576;8.568;2022-11-20T06:45:53;20.30;;;12.98;;
44304;SDS011;30019;50.576;8.568;2022-11-20T06:48:23;20.58;;;12.73;;
44304;SDS011;30019;50.576;8.568;2022-11-20T06:50:50;21.80;;;12.80;;
44304;SDS011;30019;50.576;8.568;2022-11-20T06:53:16;23.35;;;14.07;;
44304;SDS011;30019;50.576;8.568;2022-11-20T06:55:42;23.30;;;13.60;;
44304;SDS011;30019;50.576;8.568;2022-11-20T06:58:09;26.48;;;13.23;;
44304;SDS011;30019;50.576;8.568;2022-11-20T07:00:34;26.95;;;14.90;;
44304;SDS011;30019;50.576;8.568;2022-11-20T07:03:06;24.52;;;14.35;;
44304;SDS011;30019;50.576;8.568;2022-11-20T07:05:34;26.42;;;15.18;;
44304;SDS011;30019;50.576;8.568;2022-11-20T07:08:00;24.42;;;14.65;;
44304;SDS011;30019;50.576;8.568;2022-11-20T07:10:26;29.20;;;15.77;;
44304;SDS011;30019;50.576;8.568;2022-11-20T07:12:52;27.70;;;15.75;;
44304;SDS011;30019;50.576;8.568;2022-11-20T07:15:21;30.17;;;16.58;;
44304;SDS011;30019;50.576;8.568;2022-11-20T07:17:48;29.10;;;16.75;;
44304;SDS011;30019;50.576;8.568;2022-11-20T07:20:14;26.50;;;15.63;;
44304;SDS011;30019;50.576;8.568;2022-11-20T07:22:40;30.05;;;15.82;;
44304;SDS011;30019;50.576;8.568;2022-11-20T07:25:06;26.58;;;15.20;;
44304;SDS011;30019;50.576;8.568;2022-11-20T07:27:33;30.17;;;16.58;;
44304;SDS011;30019;50.576;8.568;2022-11-20T07:29:59;30.12;;;16.87;;
44304;SDS011;30019;50.576;8.568;2022-11-20T07:32:25;30.17;;;17.00;;
44304;SDS011;30019;50.576;8.568;2022-11-20T07:34:51;31.73;;;17.20;;
44304;SDS011;30019;50.576;8.568;2022-11-20T07:37:17;32.40;;;17.17;;
44304;SDS011;30019;50.576;8.568;2022-11-20T07:39:42;39.10;;;20.12;;
44304;SDS011;30019;50.576;8.568;2022-11-20T07:42:08;39.85;;;19.73;;
44304;SDS011;30019;50.576;8.568;2022-11-20T07:44:34;32.45;;;18.50;;
44304;SDS011;30019;50.576;8.568;2022-11-20T07:47:00;31.50;;;18.02;;
44304;SDS011;30019;50.576;8.568;2022-11-20T07:49:26;31.05;;;18.02;;
44304;SDS011;30019;50.576;8.568;2022-11-20T07:51:52;35.53;;;19.10;;
44304;SDS011;30019;50.576;8.568;2022-11-20T07:54:18;34.65;;;18.77;;
44304;SDS011;30019;50.576;8.568;2022-11-20T07:56:45;38.35;;;20.30;;
44304;SDS011;30019;50.576;8.568;2022-11-20T07:59:11;33.83;;;19.20;;
44304;SDS011;30019;50.576;8.568;2022-11-20T08:01:37;38.67;;;18.87;;
44304;SDS011;30019;50.576;8.568;2022-11-20T08:04:03;35.13;;;18.33;;
44304;SDS011;30019;50.576;8.568;2022-11-20T08:06:28;34.85;;;20.27;;
44304;SDS011;30019;50.576;8.568;2022-11-20T08:08:55;45.35;;;21.52;;
44304;SDS011;30019;50.576;8.568;2022-11-20T08:11:20;44.25;;;20.70;;
44304;SDS011;30019;50.576;8.568;2022-11-20T08:14:05;38.67;;;18.77;;
44304;SDS011;30019;50.576;8.568;2022-11-20T08:16:36;36.85;;;19.60;;
44304;SDS011;30019;50.576;8.568;2022-11-20T08:19:02;41.92;;;21.05;;
44304;SDS011;30019;50.576;8.568;2022-11-20T08:21:28;41.95;;;21.17;;
44304;SDS011;30019;50.576;8.568;2022-11-20T08:23:55;40.50;;;20.48;;
44304;SDS011;30019;50.576;8.568;2022-11-20T08:26:22;39.28;;;20.45;;
44304;SDS011;30019;50.576;8.568;2022-11-20T08:28:49;35.28;;;20.05;;
44304;SDS011;30019;50.576;8.568;2022-11-20T08:31:17;34.28;;;18.42;;
44304;SDS011;30019;50.576;8.568;2022-11-20T08:33:43;38.55;;;20.20;;
44304;SDS011;30019;50.576;8.568;2022-11-20T08:36:08;36.38;;;19.65;;
44304;SDS011;30019;50.576;8.568;2022-11-20T08:38:34;39.08;;;21.08;;
44304;SDS011;30019;50.576;8.568;2022-11-20T08:41:01;37.97;;;19.20;;
44304;SDS011;30019;50.576;8.568;2022-11-20T08:43:46;37.40;;;20.42;;
44304;SDS011;30019;50.576;8.568;2022-11-20T08:46:15;35.10;;;19.37;;
44304;SDS011;30019;50.576;8.568;2022-11-20T08:48:41;35.90;;;19.30;;
44304;SDS011;30019;50.576;8.568;2022-11-20T08:51:07;35.90;;;18.58;;
44304;SDS011;30019;50.576;8.568;2022-11-20T08:53:33;34.38;;;19.08;;
44304;SDS011;30019;50.576;8.568;2022-11-20T08:55:58;34.88;;;19.58;;
44304;SDS011;30019;50.576;8.568;2022-11-20T08:58:24;33.97;;;17.48;;
44304;SDS011;30019;50.576;8.568;2022-11-20T09:00:50;35.33;;;18.50;;
44304;SDS011;30019;50.576;8.568;2022-11-20T09:03:16;36.33;;;18.12;;
44304;SDS011;30019;50.576;8.568;2022-11-20T09:05:42;32.70;;;18.75;;
44304;SDS011;30019;50.576;8.568;2022-11-20T09:08:08;34.88;;;19.02;;
44304;SDS011;30019;50.576;8.568;2022-11-20T09:10:33;38.92;;;18.95;;
44304;SDS011;30019;50.576;8.568;2022-11-20T09:12:59;38.60;;;20.00;;
44304;SDS011;30019;50.576;8.568;2022-11-20T09:15:25;35.00;;;19.15;;
44304;SDS011;30019;50.576;8.568;2022-11-20T09:20:17;42.15;;;20.75;;
44304;SDS011;30019;50.576;8.568;2022-11-20T09:22:43;45.80;;;21.25;;
44304;SDS011;30019;50.576;8.568;2022-11-20T09:25:09;45.42;;;22.15;;
44304;SDS011;30019;50.576;8.568;2022-11-20T09:27:35;46.72;;;22.33;;
44304;SDS011;30019;50.576;8.568;2022-11-20T09:30:00;42.42;;;21.80;;
44304;SDS011;30019;50.576;8.568;2022-11-20T09:32:27;45.03;;;22.92;;
44304;SDS011;30019;50.576;8.568;2022-11-20T09:34:52;49.80;;;23.52;;
44304;SDS011;30019;50.576;8.568;2022-11-20T09:37:18;52.33;;;24.60;;
44304;SDS011;30019;50.576;8.568;2022-11-20T09:39:43;54.38;;;25.10;;
44304;SDS011;30019;50.576;8.568;2022-11-20T09:50:43;49.60;;;22.05;;
44304;SDS011;30019;50.576;8.568;2022-11-20T09:56:06;48.75;;;23.73;;
44304;SDS011;30019;50.576;8.568;2022-11-20T09:58:42;44.63;;;23.00;;
44304;SDS011;30019;50.576;8.568;2022-11-20T10:01:13;49.45;;;23.52;;
44304;SDS011;30019;50.576;8.568;2022-11-20T10:04:02;45.72;;;22.02;;
44304;SDS011;30019;50.576;8.568;2022-11-20T10:06:43;49.28;;;23.02;;
44304;SDS011;30019;50.576;8.568;2022-11-20T10:09:37;47.70;;;22.10;;
44304;SDS011;30019;50.576;8.568;2022-11-20T10:18:02;40.28;;;20.55;;
44304;SDS011;30019;50.576;8.568;2022-11-20T10:26:22;49.22;;;22.98;;
44304;SDS011;30019;50.576;8.568;2022-11-20T10:29:10;28.80;;;14.77;;
44304;SDS011;30019;50.576;8.568;2022-11-20T10:31:44;47.88;;;23.05;;
44304;SDS011;30019;50.576;8.568;2022-11-20T10:34:24;43.25;;;22.55;;
44304;SDS011;30019;50.576;8.568;2022-11-20T10:37:11;39.03;;;20.90;;
44304;SDS011;30019;50.576;8.568;2022-11-20T10:39:50;41.55;;;21.08;;
44304;SDS011;30019;50.576;8.568;2022-11-20T10:42:42;39.95;;;19.67;;
44304;SDS011;30019;50.576;8.568;2022-11-20T10:47:50;42.62;;;19.52;;
44304;SDS011;30019;50.576;8.568;2022-11-20T10:50:20;44.40;;;19.87;;
44304;SDS011;30019;50.576;8.568;2022-11-20T10:56:41;51.60;;;21.23;;
44304;SDS011;30019;50.576;8.568;2022-11-20T11:01:47;45.33;;;20.83;;
44304;SDS011;30019;50.576;8.568;2022-11-20T11:09:42;47.28;;;21.42;;
44304;SDS011;30019;50.576;8.568;2022-11-20T11:12:11;43.65;;;21.27;;
44304;SDS011;30019;50.576;8.568;2022-11-20T11:14:50;38.58;;;19.67;;
44304;SDS011;30019;50.576;8.568;2022-11-20T11:17:27;39.30;;;18.80;;
44304;SDS011;30019;50.576;8.568;2022-11-20T11:19:58;41.35;;;18.33;;
44304;SDS011;30019;50.576;8.568;2022-11-20T11:22:24;40.25;;;19.67;;
44304;SDS011;30019;50.576;8.568;2022-11-20T11:24:51;39.90;;;20.12;;
44304;SDS011;30019;50.576;8.568;2022-11-20T11:27:18;43.90;;;20.37;;
44304;SDS011;30019;50.576;8.568;2022-11-20T11:29:44;36.33;;;18.12;;
44304;SDS011;30019;50.576;8.568;2022-11-20T11:32:13;42.58;;;19.25;;
44304;SDS011;30019;50.576;8.568;2022-11-20T11:34:42;40.28;;;19.52;;
44304;SDS011;30019;50.576;8.568;2022-11-20T11:37:12;45.72;;;21.50;;
44304;SDS011;30019;50.576;8.568;2022-11-20T11:39:43;50.03;;;22.92;;
44304;SDS011;30019;50.576;8.568;2022-11-20T11:42:13;45.05;;;20.90;;
44304;SDS011;30019;50.576;8.568;2022-11-20T11:44:44;48.83;;;22.42;;
44304;SDS011;30019;50.576;8.568;2022-11-20T11:47:30;46.88;;;20.92;;
44304;SDS011;30019;50.576;8.568;2022-11-20T11:52:41;47.97;;;22.35;;
44304;SDS011;30019;50.576;8.568;2022-11-20T11:55:13;44.20;;;20.92;;
44304;SDS011;30019;50.576;8.568;2022-11-20T12:00:25;49.50;;;24.05;;
44304;SDS011;30019;50.576;8.568;2022-11-20T12:05:46;50.12;;;22.25;;
44304;SDS011;30019;50.576;8.568;2022-11-20T12:08:27;49.83;;;23.90;;
44304;SDS011;30019;50.576;8.568;2022-11-20T12:11:30;54.85;;;25.20;;
44304;SDS011;30019;50.576;8.568;2022-11-20T12:14:07;57.45;;;25.73;;
44304;SDS011;30019;50.576;8.568;2022-11-20T12:16:41;59.92;;;26.73;;
44304;SDS011;30019;50.576;8.568;2022-11-20T12:19:11;58.42;;;27.10;;
44304;SDS011;30019;50.576;8.568;2022-11-20T12:21:45;58.50;;;25.02;;
44304;SDS011;30019;50.576;8.568;2022-11-20T12:38:02;60.20;;;25.85;;
44304;SDS011;30019;50.576;8.568;2022-11-20T12:41:08;61.75;;;26.30;;
44304;SDS011;30019;50.576;8.568;2022-11-20T12:50:12;62.05;;;27.35;;
44304;SDS011;30019;50.576;8.568;2022-11-20T12:53:05;62.15;;;27.58;;
44304;SDS011;30019;50.576;8.568;2022-11-20T12:58:20;66.60;;;25.77;;
44304;SDS011;30019;50.576;8.568;2022-11-20T13:07:08;56.67;;;25.15;;
44304;SDS011;30019;50.576;8.568;2022-11-20T13:09:42;60.75;;;25.20;;
44304;SDS011;30019;50.576;8.568;2022-11-20T13:12:12;59.05;;;25.95;;
44304;SDS011;30019;50.576;8.568;2022-11-20T13:20:20;56.55;;;24.10;;
44304;SDS011;30019;50.576;8.568;2022-11-20T13:22:47;52.13;;;24.60;;
44304;SDS011;30019;50.576;8.568;2022-11-20T13:27:49;54.40;;;25.10;;
44304;SDS011;30019;50.576;8.568;2022-11-20T13:30:16;58.70;;;25.58;;
44304;SDS011;30019;50.576;8.568;2022-11-20T13:35:36;54.25;;;24.92;;
44304;SDS011;30019;50.576;8.568;2022-11-20T13:38:10;47.90;;;23.87;;
44304;SDS011;30019;50.576;8.568;2022-11-20T13:40:56;47.58;;;22.85;;
44304;SDS011;30019;50.576;8.568;2022-11-20T13:43:28;55.15;;;23.85;;
44304;SDS011;30019;50.576;8.568;2022-11-20T13:46:05;48.38;;;22.92;;
44304;SDS011;30019;50.576;8.568;2022-11-20T13:48:32;46.35;;;22.52;;
44304;SDS011;30019;50.576;8.568;2022-11-20T13:51:06;50.20;;;24.65;;
44304;SDS011;30019;50.576;8.568;2022-11-20T13:54:06;52.05;;;22.25;;
44304;SDS011;30019;50.576;8.568;2022-11-20T13:59:58;47.90;;;22.73;;
44304;SDS011;30019;50.576;8.568;2022-11-20T14:02:27;51.97;;;24.27;;
44304;SDS011;30019;50.576;8.568;2022-11-20T14:04:56;51.08;;;22.90;;
44304;SDS011;30019;50.576;8.568;2022-11-20T14:07:25;50.75;;;23.12;;
44304;SDS011;30019;50.576;8.568;2022-11-20T14:09:57;43.70;;;22.77;;
44304;SDS011;30019;50.576;8.568;2022-11-20T14:12:28;43.87;;;20.90;;
44304;SDS011;30019;50.576;8.568;2022-11-20T14:14:55;47.05;;;22.15;;
44304;SDS011;30019;50.576;8.568;2022-11-20T14:17:29;53.58;;;23.73;;
44304;SDS011;30019;50.576;8.568;2022-11-20T14:19:55;45.45;;;21.90;;
44304;SDS011;30019;50.576;8.568;2022-11-20T14:22:25;52.85;;;23.15;;
44304;SDS011;30019;50.576;8.568;2022-11-20T14:27:52;58.17;;;24.73;;
44304;SDS011;30019;50.576;8.568;2022-11-20T14:30:29;55.55;;;25.48;;
44304;SDS011;30019;50.576;8.568;2022-11-20T14:33:02;59.85;;;26.60;;
44304;SDS011;30019;50.576;8.568;2022-11-20T14:35:29;58.87;;;26.65;;
44304;SDS011;30019;50.576;8.568;2022-11-20T14:38:00;66.97;;;28.83;;
44304;SDS011;30019;50.576;8.568;2022-11-20T14:42:58;65.45;;;28.77;;
44304;SDS011;30019;50.576;8.568;2022-11-20T14:45:24;66.30;;;28.58;;
44304;SDS011;30019;50.576;8.568;2022-11-20T14:47:52;61.80;;;28.10;;
44304;SDS011;30019;50.576;8.568;2022-11-20T14:52:50;66.45;;;28.08;;
44304;SDS011;30019;50.576;8.568;2022-11-20T14:55:27;57.22;;;25.50;;
44304;SDS011;30019;50.576;8.568;2022-11-20T14:57:59;53.72;;;25.67;;
44304;SDS011;30019;50.576;8.568;2022-11-20T15:00:27;59.25;;;25.37;;
44304;SDS011;30019;50.576;8.568;2022-11-20T15:02:53;62.15;;;27.37;;
44304;SDS011;30019;50.576;8.568;2022-11-20T15:05:21;68.50;;;28.30;;
44304;SDS011;30019;50.576;8.568;2022-11-20T15:07:50;59.22;;;25.48;;
44304;SDS011;30019;50.576;8.568;2022-11-20T15:10:36;59.85;;;26.62;;
44304;SDS011;30019;50.576;8.568;2022-11-20T15:13:05;61.60;;;24.63;;
44304;SDS011;30019;50.576;8.568;2022-11-20T15:15:39;57.83;;;23.40;;
44304;SDS011;30019;50.576;8.568;2022-11-20T15:18:11;57.05;;;24.73;;
44304;SDS011;30019;50.576;8.568;2022-11-20T15:20:38;59.97;;;27.60;;
44304;SDS011;30019;50.576;8.568;2022-11-20T15:23:08;58.50;;;25.08;;
44304;SDS011;30019;50.576;8.568;2022-11-20T15:25:39;55.53;;;24.75;;
44304;SDS011;30019;50.576;8.568;2022-11-20T15:28:10;58.08;;;26.42;;
44304;SDS011;30019;50.576;8.568;2022-11-20T15:30:41;55.15;;;23.95;;
44304;SDS011;30019;50.576;8.568;2022-11-20T15:33:08;56.03;;;25.02;;
44304;SDS011;30019;50.576;8.568;2022-11-20T15:35:33;68.05;;;24.98;;
44304;SDS011;30019;50.576;8.568;2022-11-20T15:37:59;60.45;;;26.42;;
44304;SDS011;30019;50.576;8.568;2022-11-20T15:40:25;66.95;;;25.42;;
44304;SDS011;30019;50.576;8.568;2022-11-20T15:42:50;63.92;;;26.25;;
44304;SDS011;30019;50.576;8.568;2022-11-20T15:45:29;65.35;;;27.15;;
44304;SDS011;30019;50.576;8.568;2022-11-20T15:47:58;64.12;;;26.70;;
44304;SDS011;30019;50.576;8.568;2022-11-20T15:50:27;70.75;;;28.60;;
44304;SDS011;30019;50.576;8.568;2022-11-20T15:52:59;83.35;;;28.73;;
44304;SDS011;30019;50.576;8.568;2022-11-20T15:55:25;78.82;;;30.08;;
44304;SDS011;30019;50.576;8.568;2022-11-20T15:57:51;75.20;;;29.55;;
44304;SDS011;30019;50.576;8.568;2022-11-20T16:00:16;70.72;;;26.33;;
44304;SDS011;30019;50.576;8.568;2022-11-20T16:02:42;69.85;;;26.75;;
44304;SDS011;30019;50.576;8.568;2022-11-20T16:05:11;76.05;;;28.27;;
44304;SDS011;30019;50.576;8.568;2022-11-20T16:07:38;73.03;;;28.45;;
44304;SDS011;30019;50.576;8.568;2022-11-20T16:10:04;80.18;;;30.08;;
44304;SDS011;30019;50.576;8.568;2022-11-20T16:12:29;84.10;;;30.42;;
44304;SDS011;30019;50.576;8.568;2022-11-20T16:15:14;83.55;;;29.58;;
44304;SDS011;30019;50.576;8.568;2022-11-20T16:17:58;86.12;;;30.15;;
44304;SDS011;30019;50.576;8.568;2022-11-20T16:20:23;87.82;;;31.95;;
44304;SDS011;30019;50.576;8.568;2022-11-20T16:22:49;89.55;;;32.33;;
44304;SDS011;30019;50.576;8.568;2022-11-20T16:25:15;87.30;;;31.70;;
44304;SDS011;30019;50.576;8.568;2022-11-20T16:27:40;96.20;;;32.78;;
44304;SDS011;30019;50.576;8.568;2022-11-20T16:30:06;91.35;;;32.28;;